sensor_id;sensor_type;location;lat;lon;timestamp;P1;durP1;ratioP1;P2;durP2;ratioP2
75851;SDS011;64500;52.632;20.656;2022-11-15T00:00:57;25.50;;;15.80;;
75851;SDS011;64500;52.632;20.656;2022-11-15T00:03:27;30.50;;;16.50;;
75851;SDS011;64500;52.632;20.656;2022-11-15T00:05:54;27.30;;;15.40;;
75851;SDS011;64500;52.632;20.656;2022-11-15T00:08:21;26.60;;;16.90;;
75851;SDS011;64500;52.632;20.656;2022-11-15T00:10:56;25.40;;;15.90;;
75851;SDS011;64500;52.632;20.656;2022-11-15T00:13:27;26.20;;;17.10;;
75851;SDS011;64500;52.632;20.656;2022-11-15T00:15:58;24.00;;;15.00;;
75851;SDS011;64500;52.632;20.656;2022-11-15T00:18:26;26.80;;;15.90;;
75851;SDS011;64500;52.632;20.656;2022-11-15T00:20:54;24.70;;;14.80;;
75851;SDS011;64500;52.632;20.656;2022-11-15T00:23:21;27.60;;;17.30;;
75851;SDS011;64500;52.632;20.656;2022-11-15T00:25:55;25.90;;;15.90;;
75851;SDS011;64500;52.632;20.656;2022-11-15T00:28:23;26.60;;;16.80;;
75851;SDS011;64500;52.632;20.656;2022-11-15T00:30:51;28.40;;;17.20;;
75851;SDS011;64500;52.632;20.656;2022-11-15T00:33:18;25.40;;;16.40;;
75851;SDS011;64500;52.632;20.656;2022-11-15T00:35:45;26.60;;;16.70;;
75851;SDS011;64500;52.632;20.656;2022-11-15T00:38:12;28.30;;;17.80;;
75851;SDS011;64500;52.632;20.656;2022-11-15T00:40:39;24.60;;;15.30;;
75851;SDS011;64500;52.632;20.656;2022-11-15T00:43:06;25.00;;;15.70;;
75851;SDS011;64500;52.632;20.656;2022-11-15T00:45:33;26.20;;;16.80;;
75851;SDS011;64500;52.632;20.656;2022-11-15T00:48:00;29.20;;;17.00;;
75851;SDS011;64500;52.632;20.656;2022-11-15T00:50:26;29.50;;;17.80;;
75851;SDS011;64500;52.632;20.656;2022-11-15T00:52:54;25.60;;;16.70;;
75851;SDS011;64500;52.632;20.656;2022-11-15T00:55:20;26.40;;;16.60;;
75851;SDS011;64500;52.632;20.656;2022-11-15T00:57:47;28.10;;;17.70;;
75851;SDS011;64500;52.632;20.656;2022-11-15T01:00:15;26.40;;;17.00;;
75851;SDS011;64500;52.632;20.656;2022-11-15T01:02:42;28.20;;;16.30;;
75851;SDS011;64500;52.632;20.656;2022-11-15T01:05:09;26.10;;;15.80;;
75851;SDS011;64500;52.632;20.656;2022-11-15T01:07:36;28.70;;;17.80;;
75851;SDS011;64500;52.632;20.656;2022-11-15T01:10:04;33.00;;;19.10;;
75851;SDS011;64500;52.632;20.656;2022-11-15T01:12:32;27.80;;;17.40;;
75851;SDS011;64500;52.632;20.656;2022-11-15T01:14:59;29.20;;;17.40;;
75851;SDS011;64500;52.632;20.656;2022-11-15T01:17:26;28.10;;;17.40;;
75851;SDS011;64500;52.632;20.656;2022-11-15T01:19:53;29.00;;;17.60;;
75851;SDS011;64500;52.632;20.656;2022-11-15T01:22:20;30.20;;;17.90;;
75851;SDS011;64500;52.632;20.656;2022-11-15T01:24:48;29.20;;;18.20;;
75851;SDS011;64500;52.632;20.656;2022-11-15T01:27:16;26.60;;;16.20;;
75851;SDS011;64500;52.632;20.656;2022-11-15T01:29:43;27.20;;;16.10;;
75851;SDS011;64500;52.632;20.656;2022-11-15T01:32:10;27.30;;;16.80;;
75851;SDS011;64500;52.632;20.656;2022-11-15T01:34:37;26.00;;;16.20;;
75851;SDS011;64500;52.632;20.656;2022-11-15T01:37:04;28.60;;;17.60;;
75851;SDS011;64500;52.632;20.656;2022-11-15T01:39:31;27.50;;;15.90;;
75851;SDS011;64500;52.632;20.656;2022-11-15T01:41:58;27.10;;;17.00;;
75851;SDS011;64500;52.632;20.656;2022-11-15T01:47:06;25.40;;;16.00;;
75851;SDS011;64500;52.632;20.656;2022-11-15T01:49:39;25.20;;;15.70;;
75851;SDS011;64500;52.632;20.656;2022-11-15T01:52:14;29.40;;;17.60;;
75851;SDS011;64500;52.632;20.656;2022-11-15T01:54:45;32.50;;;17.90;;
75851;SDS011;64500;52.632;20.656;2022-11-15T01:57:15;27.90;;;16.30;;
75851;SDS011;64500;52.632;20.656;2022-11-15T01:59:42;25.50;;;16.50;;
75851;SDS011;64500;52.632;20.656;2022-11-15T02:02:11;26.60;;;15.20;;
75851;SDS011;64500;52.632;20.656;2022-11-15T02:04:40;26.20;;;16.00;;
75851;SDS011;64500;52.632;20.656;2022-11-15T02:07:09;27.90;;;15.90;;
75851;SDS011;64500;52.632;20.656;2022-11-15T02:09:39;27.40;;;16.40;;
75851;SDS011;64500;52.632;20.656;2022-11-15T02:12:06;26.70;;;15.70;;
75851;SDS011;64500;52.632;20.656;2022-11-15T02:14:37;28.00;;;16.60;;
75851;SDS011;64500;52.632;20.656;2022-11-15T02:17:22;26.10;;;16.40;;
75851;SDS011;64500;52.632;20.656;2022-11-15T02:41:54;28.70;;;17.70;;
75851;SDS011;64500;52.632;20.656;2022-11-15T02:44:55;27.20;;;16.40;;
75851;SDS011;64500;52.632;20.656;2022-11-15T02:47:24;33.70;;;18.90;;
75851;SDS011;64500;52.632;20.656;2022-11-15T02:49:59;31.20;;;18.00;;
75851;SDS011;64500;52.632;20.656;2022-11-15T02:52:50;32.00;;;18.80;;
75851;SDS011;64500;52.632;20.656;2022-11-15T02:55:28;32.00;;;19.00;;
75851;SDS011;64500;52.632;20.656;2022-11-15T03:00:54;33.90;;;19.50;;
75851;SDS011;64500;52.632;20.656;2022-11-15T03:08:57;32.80;;;18.70;;
75851;SDS011;64500;52.632;20.656;2022-11-15T03:11:35;36.30;;;22.10;;
75851;SDS011;64500;52.632;20.656;2022-11-15T03:14:11;41.20;;;22.40;;
75851;SDS011;64500;52.632;20.656;2022-11-15T03:16:51;37.60;;;22.40;;
75851;SDS011;64500;52.632;20.656;2022-11-15T03:21:58;39.80;;;22.10;;
75851;SDS011;64500;52.632;20.656;2022-11-15T03:24:29;44.10;;;23.80;;
75851;SDS011;64500;52.632;20.656;2022-11-15T03:27:01;41.20;;;24.50;;
75851;SDS011;64500;52.632;20.656;2022-11-15T03:29:35;42.30;;;24.30;;
75851;SDS011;64500;52.632;20.656;2022-11-15T03:32:11;41.50;;;23.50;;
75851;SDS011;64500;52.632;20.656;2022-11-15T03:37:13;47.90;;;25.50;;
75851;SDS011;64500;52.632;20.656;2022-11-15T03:39:42;44.20;;;23.90;;
75851;SDS011;64500;52.632;20.656;2022-11-15T03:47:48;47.50;;;25.50;;
75851;SDS011;64500;52.632;20.656;2022-11-15T03:52:48;45.70;;;26.20;;
75851;SDS011;64500;52.632;20.656;2022-11-15T03:55:18;45.30;;;25.10;;
75851;SDS011;64500;52.632;20.656;2022-11-15T03:57:50;49.70;;;25.40;;
75851;SDS011;64500;52.632;20.656;2022-11-15T04:00:19;50.20;;;26.70;;
75851;SDS011;64500;52.632;20.656;2022-11-15T04:02:46;57.00;;;28.70;;
75851;SDS011;64500;52.632;20.656;2022-11-15T04:05:13;56.10;;;29.10;;
75851;SDS011;64500;52.632;20.656;2022-11-15T04:07:40;50.40;;;27.10;;
75851;SDS011;64500;52.632;20.656;2022-11-15T04:10:08;51.60;;;28.20;;
75851;SDS011;64500;52.632;20.656;2022-11-15T04:12:38;47.20;;;26.80;;
75851;SDS011;64500;52.632;20.656;2022-11-15T04:15:15;56.70;;;30.20;;
75851;SDS011;64500;52.632;20.656;2022-11-15T04:23:03;53.60;;;27.80;;
75851;SDS011;64500;52.632;20.656;2022-11-15T04:25:51;51.50;;;28.10;;
75851;SDS011;64500;52.632;20.656;2022-11-15T04:28:19;53.30;;;28.50;;
75851;SDS011;64500;52.632;20.656;2022-11-15T04:30:46;57.50;;;28.90;;
75851;SDS011;64500;52.632;20.656;2022-11-15T04:33:13;52.30;;;28.70;;
75851;SDS011;64500;52.632;20.656;2022-11-15T04:35:40;54.10;;;27.90;;
75851;SDS011;64500;52.632;20.656;2022-11-15T04:38:09;54.60;;;28.90;;
75851;SDS011;64500;52.632;20.656;2022-11-15T04:40:37;51.40;;;27.00;;
75851;SDS011;64500;52.632;20.656;2022-11-15T04:43:04;51.40;;;27.00;;
75851;SDS011;64500;52.632;20.656;2022-11-15T04:45:31;49.00;;;26.80;;
75851;SDS011;64500;52.632;20.656;2022-11-15T04:47:58;52.70;;;27.00;;
75851;SDS011;64500;52.632;20.656;2022-11-15T04:50:25;46.10;;;24.40;;
75851;SDS011;64500;52.632;20.656;2022-11-15T04:52:52;50.10;;;25.40;;
75851;SDS011;64500;52.632;20.656;2022-11-15T04:55:20;50.10;;;26.20;;
75851;SDS011;64500;52.632;20.656;2022-11-15T04:57:47;54.90;;;28.50;;
75851;SDS011;64500;52.632;20.656;2022-11-15T05:00:23;49.50;;;26.80;;
75851;SDS011;64500;52.632;20.656;2022-11-15T05:02:50;52.40;;;28.20;;
75851;SDS011;64500;52.632;20.656;2022-11-15T05:05:36;46.50;;;24.90;;
75851;SDS011;64500;52.632;20.656;2022-11-15T05:08:03;50.60;;;26.60;;
75851;SDS011;64500;52.632;20.656;2022-11-15T05:10:30;49.60;;;25.90;;
75851;SDS011;64500;52.632;20.656;2022-11-15T05:12:57;52.20;;;26.70;;
75851;SDS011;64500;52.632;20.656;2022-11-15T05:15:24;51.20;;;26.00;;
75851;SDS011;64500;52.632;20.656;2022-11-15T05:17:53;50.10;;;26.50;;
75851;SDS011;64500;52.632;20.656;2022-11-15T05:22:50;53.50;;;26.40;;
75851;SDS011;64500;52.632;20.656;2022-11-15T05:25:19;49.90;;;25.60;;
75851;SDS011;64500;52.632;20.656;2022-11-15T05:27:46;49.40;;;24.80;;
75851;SDS011;64500;52.632;20.656;2022-11-15T05:30:14;49.10;;;24.30;;
75851;SDS011;64500;52.632;20.656;2022-11-15T05:32:42;47.20;;;23.50;;
75851;SDS011;64500;52.632;20.656;2022-11-15T05:35:12;48.40;;;25.50;;
75851;SDS011;64500;52.632;20.656;2022-11-15T05:37:53;46.10;;;25.00;;
75851;SDS011;64500;52.632;20.656;2022-11-15T05:40:20;57.00;;;27.10;;
75851;SDS011;64500;52.632;20.656;2022-11-15T05:42:47;49.50;;;25.00;;
75851;SDS011;64500;52.632;20.656;2022-11-15T05:45:14;46.40;;;22.70;;
75851;SDS011;64500;52.632;20.656;2022-11-15T05:47:42;48.30;;;22.70;;
75851;SDS011;64500;52.632;20.656;2022-11-15T05:50:11;45.40;;;23.20;;
75851;SDS011;64500;52.632;20.656;2022-11-15T05:52:41;46.20;;;23.60;;
75851;SDS011;64500;52.632;20.656;2022-11-15T05:55:09;48.90;;;23.20;;
75851;SDS011;64500;52.632;20.656;2022-11-15T05:57:36;46.90;;;23.50;;
75851;SDS011;64500;52.632;20.656;2022-11-15T06:00:04;47.20;;;23.00;;
75851;SDS011;64500;52.632;20.656;2022-11-15T06:02:33;46.80;;;23.50;;
75851;SDS011;64500;52.632;20.656;2022-11-15T06:08:41;45.10;;;22.70;;
75851;SDS011;64500;52.632;20.656;2022-11-15T06:11:08;43.50;;;22.80;;
75851;SDS011;64500;52.632;20.656;2022-11-15T06:13:35;50.30;;;24.70;;
75851;SDS011;64500;52.632;20.656;2022-11-15T06:16:02;47.50;;;23.30;;
75851;SDS011;64500;52.632;20.656;2022-11-15T06:18:31;47.60;;;24.20;;
75851;SDS011;64500;52.632;20.656;2022-11-15T06:21:00;49.40;;;24.00;;
75851;SDS011;64500;52.632;20.656;2022-11-15T06:23:28;56.60;;;25.50;;
75851;SDS011;64500;52.632;20.656;2022-11-15T06:26:00;50.90;;;24.40;;
75851;SDS011;64500;52.632;20.656;2022-11-15T06:28:29;48.20;;;23.40;;
75851;SDS011;64500;52.632;20.656;2022-11-15T06:31:01;49.10;;;23.30;;
75851;SDS011;64500;52.632;20.656;2022-11-15T06:33:32;49.80;;;23.20;;
75851;SDS011;64500;52.632;20.656;2022-11-15T06:36:00;49.60;;;25.30;;
75851;SDS011;64500;52.632;20.656;2022-11-15T06:38:29;51.60;;;23.70;;
75851;SDS011;64500;52.632;20.656;2022-11-15T06:41:03;48.00;;;23.20;;
75851;SDS011;64500;52.632;20.656;2022-11-15T06:43:32;49.90;;;24.00;;
75851;SDS011;64500;52.632;20.656;2022-11-15T06:46:00;54.40;;;23.90;;
75851;SDS011;64500;52.632;20.656;2022-11-15T06:48:28;53.00;;;24.10;;
75851;SDS011;64500;52.632;20.656;2022-11-15T06:50:59;48.40;;;22.70;;
75851;SDS011;64500;52.632;20.656;2022-11-15T06:53:28;48.30;;;23.10;;
75851;SDS011;64500;52.632;20.656;2022-11-15T06:56:05;44.50;;;23.00;;
75851;SDS011;64500;52.632;20.656;2022-11-15T06:58:33;47.00;;;23.60;;
75851;SDS011;64500;52.632;20.656;2022-11-15T07:01:02;49.00;;;23.50;;
75851;SDS011;64500;52.632;20.656;2022-11-15T07:03:35;49.70;;;22.70;;
75851;SDS011;64500;52.632;20.656;2022-11-15T07:06:08;47.30;;;22.80;;
75851;SDS011;64500;52.632;20.656;2022-11-15T07:08:42;45.90;;;22.40;;
75851;SDS011;64500;52.632;20.656;2022-11-15T07:11:09;53.90;;;25.30;;
75851;SDS011;64500;52.632;20.656;2022-11-15T07:13:38;46.40;;;23.20;;
75851;SDS011;64500;52.632;20.656;2022-11-15T07:16:06;45.80;;;22.10;;
75851;SDS011;64500;52.632;20.656;2022-11-15T07:18:35;48.10;;;23.30;;
75851;SDS011;64500;52.632;20.656;2022-11-15T07:21:04;42.20;;;21.10;;
75851;SDS011;64500;52.632;20.656;2022-11-15T07:23:33;48.00;;;22.70;;
75851;SDS011;64500;52.632;20.656;2022-11-15T07:26:02;43.50;;;21.30;;
75851;SDS011;64500;52.632;20.656;2022-11-15T07:28:29;45.20;;;21.90;;
75851;SDS011;64500;52.632;20.656;2022-11-15T07:30:56;47.00;;;24.60;;
75851;SDS011;64500;52.632;20.656;2022-11-15T07:33:23;48.60;;;22.40;;
75851;SDS011;64500;52.632;20.656;2022-11-15T07:35:50;47.40;;;23.40;;
75851;SDS011;64500;52.632;20.656;2022-11-15T07:38:17;46.90;;;21.60;;
75851;SDS011;64500;52.632;20.656;2022-11-15T07:40:47;46.80;;;22.10;;
75851;SDS011;64500;52.632;20.656;2022-11-15T07:43:21;45.40;;;21.80;;
75851;SDS011;64500;52.632;20.656;2022-11-15T07:45:48;50.40;;;23.30;;
75851;SDS011;64500;52.632;20.656;2022-11-15T07:48:15;47.60;;;23.60;;
75851;SDS011;64500;52.632;20.656;2022-11-15T07:50:42;46.90;;;22.90;;
75851;SDS011;64500;52.632;20.656;2022-11-15T07:53:09;44.30;;;22.40;;
75851;SDS011;64500;52.632;20.656;2022-11-15T07:55:37;48.10;;;23.40;;
75851;SDS011;64500;52.632;20.656;2022-11-15T07:58:09;44.70;;;22.30;;
75851;SDS011;64500;52.632;20.656;2022-11-15T08:00:37;48.10;;;21.60;;
75851;SDS011;64500;52.632;20.656;2022-11-15T08:03:05;54.50;;;24.50;;
75851;SDS011;64500;52.632;20.656;2022-11-15T08:05:37;49.90;;;23.50;;
75851;SDS011;64500;52.632;20.656;2022-11-15T08:08:06;46.50;;;22.10;;
75851;SDS011;64500;52.632;20.656;2022-11-15T08:10:35;44.00;;;21.00;;
75851;SDS011;64500;52.632;20.656;2022-11-15T08:13:06;52.10;;;23.00;;
75851;SDS011;64500;52.632;20.656;2022-11-15T08:15:35;50.20;;;23.50;;
75851;SDS011;64500;52.632;20.656;2022-11-15T08:18:04;48.20;;;23.80;;
75851;SDS011;64500;52.632;20.656;2022-11-15T08:20:41;50.30;;;23.80;;
75851;SDS011;64500;52.632;20.656;2022-11-15T08:23:10;47.50;;;22.70;;
75851;SDS011;64500;52.632;20.656;2022-11-15T08:25:38;53.10;;;22.00;;
75851;SDS011;64500;52.632;20.656;2022-11-15T08:28:07;49.40;;;22.20;;
75851;SDS011;64500;52.632;20.656;2022-11-15T08:30:36;49.90;;;22.00;;
75851;SDS011;64500;52.632;20.656;2022-11-15T08:33:11;45.00;;;21.80;;
75851;SDS011;64500;52.632;20.656;2022-11-15T08:35:42;45.80;;;22.10;;
75851;SDS011;64500;52.632;20.656;2022-11-15T08:38:10;45.30;;;19.90;;
75851;SDS011;64500;52.632;20.656;2022-11-15T08:40:38;48.70;;;21.40;;
75851;SDS011;64500;52.632;20.656;2022-11-15T08:43:04;52.50;;;23.60;;
75851;SDS011;64500;52.632;20.656;2022-11-15T08:45:33;44.60;;;21.40;;
75851;SDS011;64500;52.632;20.656;2022-11-15T08:48:02;51.50;;;24.30;;
75851;SDS011;64500;52.632;20.656;2022-11-15T08:50:29;49.90;;;21.50;;
75851;SDS011;64500;52.632;20.656;2022-11-15T08:52:57;47.40;;;24.00;;
75851;SDS011;64500;52.632;20.656;2022-11-15T08:55:24;50.20;;;22.00;;
75851;SDS011;64500;52.632;20.656;2022-11-15T08:57:50;48.80;;;23.20;;
75851;SDS011;64500;52.632;20.656;2022-11-15T09:00:17;50.00;;;22.70;;
75851;SDS011;64500;52.632;20.656;2022-11-15T09:02:46;52.00;;;24.30;;
75851;SDS011;64500;52.632;20.656;2022-11-15T09:05:13;48.10;;;23.60;;
75851;SDS011;64500;52.632;20.656;2022-11-15T09:07:41;53.00;;;23.50;;
75851;SDS011;64500;52.632;20.656;2022-11-15T09:10:09;52.40;;;23.40;;
75851;SDS011;64500;52.632;20.656;2022-11-15T09:12:36;47.10;;;22.70;;
75851;SDS011;64500;52.632;20.656;2022-11-15T09:15:04;49.10;;;22.70;;
75851;SDS011;64500;52.632;20.656;2022-11-15T09:17:32;48.80;;;23.90;;
75851;SDS011;64500;52.632;20.656;2022-11-15T09:19:58;53.60;;;24.10;;
75851;SDS011;64500;52.632;20.656;2022-11-15T09:22:25;55.70;;;25.20;;
75851;SDS011;64500;52.632;20.656;2022-11-15T09:24:52;55.20;;;25.70;;
75851;SDS011;64500;52.632;20.656;2022-11-15T09:27:19;63.30;;;26.60;;
75851;SDS011;64500;52.632;20.656;2022-11-15T09:29:46;53.30;;;25.10;;
75851;SDS011;64500;52.632;20.656;2022-11-15T09:32:13;59.10;;;26.30;;
75851;SDS011;64500;52.632;20.656;2022-11-15T09:34:40;57.50;;;26.50;;
75851;SDS011;64500;52.632;20.656;2022-11-15T09:37:06;53.70;;;24.40;;
75851;SDS011;64500;52.632;20.656;2022-11-15T09:39:33;58.40;;;26.40;;
75851;SDS011;64500;52.632;20.656;2022-11-15T09:42:06;54.10;;;24.50;;
75851;SDS011;64500;52.632;20.656;2022-11-15T09:50:49;49.40;;;23.30;;
75851;SDS011;64500;52.632;20.656;2022-11-15T09:56:21;57.30;;;24.60;;
75851;SDS011;64500;52.632;20.656;2022-11-15T10:01:56;48.50;;;23.40;;
75851;SDS011;64500;52.632;20.656;2022-11-15T10:04:36;54.30;;;24.90;;
75851;SDS011;64500;52.632;20.656;2022-11-15T10:09:39;52.90;;;25.90;;
75851;SDS011;64500;52.632;20.656;2022-11-15T10:12:28;58.30;;;26.50;;
75851;SDS011;64500;52.632;20.656;2022-11-15T10:14:59;57.90;;;26.70;;
75851;SDS011;64500;52.632;20.656;2022-11-15T10:20:22;53.80;;;24.20;;
75851;SDS011;64500;52.632;20.656;2022-11-15T10:22:56;51.20;;;22.30;;
75851;SDS011;64500;52.632;20.656;2022-11-15T10:30:32;51.10;;;24.40;;
75851;SDS011;64500;52.632;20.656;2022-11-15T10:33:09;50.00;;;22.90;;
75851;SDS011;64500;52.632;20.656;2022-11-15T10:44:01;51.30;;;22.50;;
75851;SDS011;64500;52.632;20.656;2022-11-15T10:46:38;49.30;;;23.20;;
75851;SDS011;64500;52.632;20.656;2022-11-15T10:49:11;53.10;;;23.20;;
75851;SDS011;64500;52.632;20.656;2022-11-15T10:51:44;54.60;;;24.50;;
75851;SDS011;64500;52.632;20.656;2022-11-15T10:57:17;48.90;;;22.90;;
75851;SDS011;64500;52.632;20.656;2022-11-15T10:59:46;53.90;;;22.40;;
75851;SDS011;64500;52.632;20.656;2022-11-15T11:02:29;47.30;;;22.40;;
75851;SDS011;64500;52.632;20.656;2022-11-15T11:10:55;60.10;;;27.00;;
75851;SDS011;64500;52.632;20.656;2022-11-15T11:13:27;48.50;;;22.60;;
75851;SDS011;64500;52.632;20.656;2022-11-15T11:18:32;46.90;;;21.60;;
75851;SDS011;64500;52.632;20.656;2022-11-15T11:21:13;45.30;;;21.80;;
75851;SDS011;64500;52.632;20.656;2022-11-15T11:26:32;53.60;;;25.40;;
75851;SDS011;64500;52.632;20.656;2022-11-15T11:34:39;51.80;;;23.70;;
75851;SDS011;64500;52.632;20.656;2022-11-15T11:37:23;50.20;;;23.60;;
75851;SDS011;64500;52.632;20.656;2022-11-15T11:40:08;51.30;;;25.20;;
75851;SDS011;64500;52.632;20.656;2022-11-15T11:48:17;51.50;;;23.80;;
75851;SDS011;64500;52.632;20.656;2022-11-15T11:50:56;56.80;;;25.70;;
75851;SDS011;64500;52.632;20.656;2022-11-15T11:56:39;54.80;;;23.50;;
75851;SDS011;64500;52.632;20.656;2022-11-15T11:59:11;51.90;;;23.10;;
75851;SDS011;64500;52.632;20.656;2022-11-15T12:05:10;55.70;;;25.70;;
75851;SDS011;64500;52.632;20.656;2022-11-15T12:07:43;51.60;;;24.40;;
75851;SDS011;64500;52.632;20.656;2022-11-15T12:10:15;55.60;;;26.60;;
75851;SDS011;64500;52.632;20.656;2022-11-15T12:13:31;56.40;;;25.30;;
75851;SDS011;64500;52.632;20.656;2022-11-15T12:15:47;53.00;;;24.20;;
75851;SDS011;64500;52.632;20.656;2022-11-15T12:18:23;50.60;;;23.80;;
75851;SDS011;64500;52.632;20.656;2022-11-15T12:21:01;59.40;;;26.00;;
75851;SDS011;64500;52.632;20.656;2022-11-15T12:23:43;57.90;;;25.90;;
75851;SDS011;64500;52.632;20.656;2022-11-15T12:26:22;59.70;;;27.20;;
75851;SDS011;64500;52.632;20.656;2022-11-15T12:28:54;67.20;;;26.30;;
75851;SDS011;64500;52.632;20.656;2022-11-15T12:36:49;57.20;;;25.30;;
75851;SDS011;64500;52.632;20.656;2022-11-15T12:39:17;79.00;;;31.70;;
75851;SDS011;64500;52.632;20.656;2022-11-15T12:47:23;88.10;;;34.70;;
75851;SDS011;64500;52.632;20.656;2022-11-15T12:49:52;77.40;;;34.10;;
75851;SDS011;64500;52.632;20.656;2022-11-15T12:52:20;76.40;;;31.90;;
75851;SDS011;64500;52.632;20.656;2022-11-15T12:54:51;71.20;;;32.00;;
75851;SDS011;64500;52.632;20.656;2022-11-15T13:02:38;63.80;;;28.00;;
75851;SDS011;64500;52.632;20.656;2022-11-15T13:10:29;64.90;;;28.00;;
75851;SDS011;64500;52.632;20.656;2022-11-15T13:13:06;62.50;;;27.50;;
75851;SDS011;64500;52.632;20.656;2022-11-15T13:18:30;66.30;;;29.80;;
75851;SDS011;64500;52.632;20.656;2022-11-15T13:20:59;60.70;;;28.30;;
75851;SDS011;64500;52.632;20.656;2022-11-15T13:23:27;57.80;;;26.00;;
75851;SDS011;64500;52.632;20.656;2022-11-15T13:26:09;56.00;;;28.10;;
75851;SDS011;64500;52.632;20.656;2022-11-15T13:28:47;57.20;;;27.50;;
75851;SDS011;64500;52.632;20.656;2022-11-15T13:33:54;56.60;;;28.00;;
75851;SDS011;64500;52.632;20.656;2022-11-15T13:36:26;60.80;;;28.20;;
75851;SDS011;64500;52.632;20.656;2022-11-15T13:38:58;62.40;;;27.50;;
75851;SDS011;64500;52.632;20.656;2022-11-15T13:41:32;64.50;;;27.90;;
75851;SDS011;64500;52.632;20.656;2022-11-15T13:44:01;31.30;;;26.50;;
75851;SDS011;64500;52.632;20.656;2022-11-15T13:46:29;55.90;;;26.50;;
75851;SDS011;64500;52.632;20.656;2022-11-15T13:49:05;61.30;;;29.20;;
75851;SDS011;64500;52.632;20.656;2022-11-15T13:56:45;55.60;;;26.00;;
75851;SDS011;64500;52.632;20.656;2022-11-15T13:59:24;57.40;;;26.20;;
75851;SDS011;64500;52.632;20.656;2022-11-15T14:01:54;60.60;;;28.00;;
75851;SDS011;64500;52.632;20.656;2022-11-15T14:04:24;60.40;;;27.10;;
75851;SDS011;64500;52.632;20.656;2022-11-15T14:06:56;53.20;;;23.70;;
75851;SDS011;64500;52.632;20.656;2022-11-15T14:09:29;48.90;;;23.40;;
75851;SDS011;64500;52.632;20.656;2022-11-15T14:12:21;56.90;;;24.90;;
75851;SDS011;64500;52.632;20.656;2022-11-15T14:15:00;54.80;;;24.70;;
75851;SDS011;64500;52.632;20.656;2022-11-15T14:17:44;59.10;;;26.30;;
75851;SDS011;64500;52.632;20.656;2022-11-15T14:20:31;53.40;;;24.50;;
75851;SDS011;64500;52.632;20.656;2022-11-15T14:23:05;50.70;;;24.10;;
75851;SDS011;64500;52.632;20.656;2022-11-15T14:25:56;54.80;;;25.50;;
75851;SDS011;64500;52.632;20.656;2022-11-15T14:30:52;66.90;;;30.10;;
75851;SDS011;64500;52.632;20.656;2022-11-15T14:33:33;58.10;;;27.30;;
75851;SDS011;64500;52.632;20.656;2022-11-15T14:36:10;54.50;;;26.10;;
75851;SDS011;64500;52.632;20.656;2022-11-15T14:38:42;55.50;;;27.10;;
75851;SDS011;64500;52.632;20.656;2022-11-15T14:41:22;64.50;;;31.30;;
75851;SDS011;64500;52.632;20.656;2022-11-15T14:46:19;56.30;;;28.40;;
75851;SDS011;64500;52.632;20.656;2022-11-15T14:48:46;51.20;;;24.70;;
75851;SDS011;64500;52.632;20.656;2022-11-15T14:51:15;61.40;;;27.90;;
75851;SDS011;64500;52.632;20.656;2022-11-15T14:53:44;51.70;;;25.50;;
75851;SDS011;64500;52.632;20.656;2022-11-15T14:56:12;49.90;;;24.60;;
75851;SDS011;64500;52.632;20.656;2022-11-15T14:58:40;55.20;;;26.60;;
75851;SDS011;64500;52.632;20.656;2022-11-15T15:01:25;49.80;;;25.20;;
75851;SDS011;64500;52.632;20.656;2022-11-15T15:03:53;51.10;;;25.60;;
75851;SDS011;64500;52.632;20.656;2022-11-15T15:06:24;48.50;;;25.60;;
75851;SDS011;64500;52.632;20.656;2022-11-15T15:08:52;56.70;;;25.40;;
75851;SDS011;64500;52.632;20.656;2022-11-15T15:11:27;48.90;;;23.00;;
75851;SDS011;64500;52.632;20.656;2022-11-15T15:13:56;45.70;;;22.70;;
75851;SDS011;64500;52.632;20.656;2022-11-15T15:16:26;50.10;;;23.90;;
75851;SDS011;64500;52.632;20.656;2022-11-15T15:18:53;45.40;;;21.80;;
75851;SDS011;64500;52.632;20.656;2022-11-15T15:21:22;57.20;;;25.00;;
75851;SDS011;64500;52.632;20.656;2022-11-15T15:23:51;55.50;;;24.80;;
75851;SDS011;64500;52.632;20.656;2022-11-15T15:26:20;54.80;;;25.60;;
75851;SDS011;64500;52.632;20.656;2022-11-15T15:28:49;54.20;;;25.80;;
75851;SDS011;64500;52.632;20.656;2022-11-15T15:31:18;51.70;;;24.70;;
75851;SDS011;64500;52.632;20.656;2022-11-15T15:33:45;54.30;;;25.40;;
75851;SDS011;64500;52.632;20.656;2022-11-15T15:36:13;57.60;;;25.30;;
75851;SDS011;64500;52.632;20.656;2022-11-15T15:38:43;62.70;;;27.10;;
75851;SDS011;64500;52.632;20.656;2022-11-15T15:41:11;55.20;;;24.80;;
75851;SDS011;64500;52.632;20.656;2022-11-15T15:43:38;57.80;;;26.60;;
75851;SDS011;64500;52.632;20.656;2022-11-15T15:46:13;64.10;;;29.80;;
75851;SDS011;64500;52.632;20.656;2022-11-15T15:48:41;66.50;;;29.90;;
75851;SDS011;64500;52.632;20.656;2022-11-15T15:51:09;63.50;;;28.50;;
75851;SDS011;64500;52.632;20.656;2022-11-15T15:53:37;63.50;;;28.50;;
75851;SDS011;64500;52.632;20.656;2022-11-15T15:56:04;54.20;;;25.50;;
75851;SDS011;64500;52.632;20.656;2022-11-15T15:58:34;57.40;;;26.40;;
75851;SDS011;64500;52.632;20.656;2022-11-15T16:01:02;61.20;;;26.60;;
75851;SDS011;64500;52.632;20.656;2022-11-15T16:03:29;51.60;;;24.60;;
75851;SDS011;64500;52.632;20.656;2022-11-15T16:05:56;48.70;;;22.10;;
75851;SDS011;64500;52.632;20.656;2022-11-15T16:08:25;52.90;;;25.20;;
75851;SDS011;64500;52.632;20.656;2022-11-15T16:10:53;55.60;;;24.70;;
75851;SDS011;64500;52.632;20.656;2022-11-15T16:13:20;53.10;;;25.60;;
75851;SDS011;64500;52.632;20.656;2022-11-15T16:15:48;61.60;;;26.80;;
75851;SDS011;64500;52.632;20.656;2022-11-15T16:18:18;59.80;;;27.00;;
75851;SDS011;64500;52.632;20.656;2022-11-15T16:20:46;53.60;;;25.60;;
75851;SDS011;64500;52.632;20.656;2022-11-15T16:23:17;58.60;;;27.10;;
75851;SDS011;64500;52.632;20.656;2022-11-15T16:25:50;51.90;;;24.00;;
75851;SDS011;64500;52.632;20.656;2022-11-15T16:30:59;57.10;;;26.70;;
75851;SDS011;64500;52.632;20.656;2022-11-15T16:33:31;52.00;;;23.70;;
75851;SDS011;64500;52.632;20.656;2022-11-15T16:35:58;51.00;;;22.40;;
75851;SDS011;64500;52.632;20.656;2022-11-15T16:38:25;53.30;;;23.80;;
75851;SDS011;64500;52.632;20.656;2022-11-15T16:40:53;56.60;;;23.70;;
75851;SDS011;64500;52.632;20.656;2022-11-15T16:43:19;47.90;;;22.00;;
75851;SDS011;64500;52.632;20.656;2022-11-15T16:45:47;48.40;;;23.00;;
75851;SDS011;64500;52.632;20.656;2022-11-15T16:48:23;54.60;;;23.90;;
75851;SDS011;64500;52.632;20.656;2022-11-15T16:50:54;46.40;;;21.80;;
75851;SDS011;64500;52.632;20.656;2022-11-15T16:53:25;52.10;;;23.80;;
75851;SDS011;64500;52.632;20.656;2022-11-15T16:55:54;55.10;;;23.60;;
75851;SDS011;64500;52.632;20.656;2022-11-15T16:58:21;51.40;;;23.50;;
75851;SDS011;64500;52.632;20.656;2022-11-15T17:00:52;44.20;;;22.90;;
75851;SDS011;64500;52.632;20.656;2022-11-15T17:03:20;44.20;;;21.10;;
75851;SDS011;64500;52.632;20.656;2022-11-15T17:05:48;43.00;;;20.50;;
75851;SDS011;64500;52.632;20.656;2022-11-15T17:08:16;43.80;;;21.00;;